createdAt,value
2022-09-13T00:00:29.000Z,66.09
2022-09-13T00:01:29.000Z,65.98
2022-09-13T00:02:29.000Z,66.25
2022-09-13T00:03:30.000Z,66.16
2022-09-13T00:04:28.000Z,66.04
2022-09-13T00:05:29.000Z,66.09
2022-09-13T00:06:28.000Z,66.12
2022-09-13T00:07:28.000Z,66.04
2022-09-13T00:08:28.000Z,66.06
2022-09-13T00:09:28.000Z,66.24
2022-09-13T00:10:31.000Z,66.09
2022-09-13T00:11:29.000Z,66.18
2022-09-13T00:12:28.000Z,66.25
2022-09-13T00:13:29.000Z,66.76
2022-09-13T00:14:29.000Z,66.62
2022-09-13T00:15:29.000Z,66.51
2022-09-13T00:16:29.000Z,66.45
2022-09-13T00:17:29.000Z,66.65
2022-09-13T00:18:29.000Z,66.50
2022-09-13T00:19:28.000Z,66.77
2022-09-13T00:20:28.000Z,66.63
2022-09-13T00:21:28.000Z,66.70
2022-09-13T00:22:29.000Z,66.85
2022-09-13T00:23:29.000Z,66.82
2022-09-13T00:24:28.000Z,66.80
2022-09-13T00:25:28.000Z,66.77
2022-09-13T00:26:28.000Z,66.91
2022-09-13T00:27:31.000Z,66.83
2022-09-13T00:28:29.000Z,66.73
2022-09-13T00:29:29.000Z,66.95
2022-09-13T00:30:29.000Z,67.27
2022-09-13T00:31:28.000Z,67.66
2022-09-13T00:32:29.000Z,67.41
2022-09-13T00:33:29.000Z,67.13
2022-09-13T00:34:29.000Z,66.90
2022-09-13T00:35:29.000Z,66.79
2022-09-13T00:36:29.000Z,67.18
2022-09-13T00:37:29.000Z,66.73
2022-09-13T00:38:29.000Z,66.86
2022-09-13T00:39:29.000Z,67.06
2022-09-13T00:40:29.000Z,67.05
2022-09-13T00:41:29.000Z,67.13
2022-09-13T00:42:31.000Z,66.95
2022-09-13T00:43:39.000Z,66.95
2022-09-13T00:44:39.000Z,66.95
2022-09-13T00:45:29.000Z,66.89
2022-09-13T00:46:40.000Z,67.05
2022-09-13T00:47:38.000Z,67.13
2022-09-13T00:48:32.000Z,67.32
2022-09-13T00:49:34.000Z,67.28
2022-09-13T00:50:35.000Z,67.39
2022-09-13T00:51:30.000Z,67.54
2022-09-13T00:52:32.000Z,67.53
2022-09-13T00:53:32.000Z,67.62
2022-09-13T00:54:38.000Z,67.31
2022-09-13T00:55:35.000Z,67.39
2022-09-13T00:56:36.000Z,67.30
2022-09-13T00:57:32.000Z,67.48
2022-09-13T00:58:38.000Z,67.77
2022-09-13T00:59:37.000Z,67.56
2022-09-13T01:00:29.000Z,67.84
2022-09-13T01:01:36.000Z,67.62
2022-09-13T01:02:29.000Z,67.89
2022-09-13T01:03:33.000Z,67.60
2022-09-13T01:04:32.000Z,67.79
2022-09-13T01:05:35.000Z,67.69
2022-09-13T01:06:32.000Z,67.73
2022-09-13T01:07:29.000Z,67.93
2022-09-13T01:08:32.000Z,67.87
2022-09-13T01:09:31.000Z,68.25
2022-09-13T01:10:32.000Z,67.95
2022-09-13T01:11:39.000Z,67.89
2022-09-13T01:12:42.000Z,67.88
2022-09-13T01:13:33.000Z,68.16
2022-09-13T01:14:31.000Z,68.02
2022-09-13T01:15:29.000Z,68.17
2022-09-13T01:16:29.000Z,68.36
2022-09-13T01:17:31.000Z,68.28
2022-09-13T01:18:29.000Z,68.48
2022-09-13T01:19:29.000Z,68.40
2022-09-13T01:20:46.000Z,68.46
2022-09-13T01:21:48.000Z,68.46
2022-09-13T01:22:39.000Z,68.54
2022-09-13T01:23:58.000Z,68.60
2022-09-13T01:24:39.000Z,68.66
2022-09-13T01:25:52.000Z,68.68
2022-09-13T01:26:47.000Z,68.61
2022-09-13T01:27:38.000Z,68.73
2022-09-13T01:28:39.000Z,68.97
2022-09-13T01:29:49.000Z,68.60
2022-09-13T01:30:49.000Z,68.91
2022-09-13T01:31:44.000Z,68.88
2022-09-13T01:32:46.000Z,69.14
2022-09-13T01:33:38.000Z,68.95
2022-09-13T01:34:52.000Z,68.80
2022-09-13T01:35:39.000Z,69.08
2022-09-13T01:36:43.000Z,68.89
2022-09-13T01:37:44.000Z,69.13
2022-09-13T01:38:42.000Z,68.98
2022-09-13T01:39:51.000Z,68.96
2022-09-13T01:40:44.000Z,68.99
2022-09-13T01:41:52.000Z,68.93
2022-09-13T01:42:39.000Z,68.99
2022-09-13T01:43:50.000Z,69.42
2022-09-13T01:44:42.000Z,68.98
2022-09-13T01:45:39.000Z,69.07
2022-09-13T01:46:39.000Z,69.11
2022-09-13T01:47:39.000Z,69.36
2022-09-13T01:48:49.000Z,69.76
2022-09-13T01:49:45.000Z,69.49
2022-09-13T01:50:39.000Z,69.64
2022-09-13T01:51:34.000Z,69.67
2022-09-13T01:52:38.000Z,69.42
2022-09-13T01:53:39.000Z,69.37
2022-09-13T01:54:38.000Z,69.28
2022-09-13T01:55:40.000Z,69.35
2022-09-13T01:56:39.000Z,69.50
2022-09-13T01:57:34.000Z,69.63
2022-09-13T01:58:38.000Z,69.67
2022-09-13T01:59:55.000Z,69.58
2022-09-13T02:00:42.000Z,69.65
2022-09-13T02:01:38.000Z,70.06
2022-09-13T02:02:40.000Z,70.25
2022-09-13T02:03:36.000Z,69.93
2022-09-13T02:04:37.000Z,70.15
2022-09-13T02:05:52.000Z,69.83
2022-09-13T02:06:33.000Z,70.17
2022-09-13T02:07:35.000Z,70.37
2022-09-13T02:08:43.000Z,70.45
2022-09-13T02:09:33.000Z,70.40
2022-09-13T02:10:33.000Z,70.24
2022-09-13T02:11:31.000Z,70.14
2022-09-13T02:12:33.000Z,70.30
2022-09-13T02:13:34.000Z,70.00
2022-09-13T02:14:37.000Z,70.19
2022-09-13T02:15:35.000Z,70.48
2022-09-13T02:16:38.000Z,70.38
2022-09-13T02:17:35.000Z,70.71
2022-09-13T02:18:35.000Z,70.39
2022-09-13T02:19:50.000Z,70.84
2022-09-13T02:20:33.000Z,70.78
2022-09-13T02:21:34.000Z,70.71
2022-09-13T02:22:37.000Z,70.68
2022-09-13T02:23:41.000Z,70.47
2022-09-13T02:24:38.000Z,70.48
2022-09-13T02:25:32.000Z,70.98
2022-09-13T02:26:32.000Z,70.63
2022-09-13T02:27:32.000Z,70.50
2022-09-13T02:28:35.000Z,70.75
2022-09-13T02:29:31.000Z,70.97
2022-09-13T02:30:31.000Z,70.88
2022-09-13T02:31:37.000Z,70.77
2022-09-13T02:32:34.000Z,70.98
2022-09-13T02:33:36.000Z,70.93
2022-09-13T02:34:38.000Z,70.89
2022-09-13T02:35:53.000Z,71.17
2022-09-13T02:36:33.000Z,71.05
2022-09-13T02:37:31.000Z,71.07
2022-09-13T02:38:40.000Z,71.11
2022-09-13T02:39:30.000Z,70.91
2022-09-13T02:40:34.000Z,71.56
2022-09-13T02:41:43.000Z,71.47
2022-09-13T02:42:37.000Z,71.20
2022-09-13T02:43:40.000Z,71.38
2022-09-13T02:44:35.000Z,71.23
2022-09-13T02:45:36.000Z,71.06
2022-09-13T02:46:51.000Z,71.46
2022-09-13T02:47:54.000Z,71.26
2022-09-13T02:48:40.000Z,71.96
2022-09-13T02:49:40.000Z,71.59
2022-09-13T02:50:44.000Z,71.57
2022-09-13T02:51:41.000Z,72.16
2022-09-13T02:52:50.000Z,71.69
2022-09-13T02:53:40.000Z,71.87
2022-09-13T02:54:41.000Z,71.81
2022-09-13T02:55:51.000Z,71.59
2022-09-13T02:56:42.000Z,71.55
2022-09-13T02:58:03.000Z,71.14
2022-09-13T02:58:44.000Z,71.49
2022-09-13T02:59:29.000Z,71.25
2022-09-13T03:00:29.000Z,71.07
2022-09-13T03:01:29.000Z,71.36
2022-09-13T03:02:33.000Z,71.38
2022-09-13T03:03:28.000Z,71.88
2022-09-13T03:04:29.000Z,71.68
2022-09-13T03:05:30.000Z,72.03
2022-09-13T03:06:28.000Z,71.73
2022-09-13T03:07:29.000Z,71.67
2022-09-13T03:08:29.000Z,71.47
2022-09-13T03:09:30.000Z,71.23
2022-09-13T03:10:41.000Z,71.74
2022-09-13T03:11:52.000Z,71.50
2022-09-13T03:13:04.000Z,71.22
2022-09-13T03:13:41.000Z,71.24
2022-09-13T03:14:38.000Z,71.04
2022-09-13T03:15:49.000Z,71.00
2022-09-13T03:16:43.000Z,71.61
2022-09-13T03:17:54.000Z,71.41
2022-09-13T03:18:44.000Z,71.48
2022-09-13T03:19:46.000Z,71.82
2022-09-13T03:20:42.000Z,71.94
2022-09-13T03:21:54.000Z,71.94
2022-09-13T03:22:53.000Z,71.80
2022-09-13T03:23:48.000Z,71.45
2022-09-13T03:24:39.000Z,71.47
2022-09-13T03:25:38.000Z,72.19
2022-09-13T03:26:44.000Z,72.25
2022-09-13T03:27:39.000Z,71.90
2022-09-13T03:28:40.000Z,72.12
2022-09-13T03:29:40.000Z,72.18
2022-09-13T03:30:32.000Z,71.86
2022-09-13T03:31:38.000Z,71.98
2022-09-13T03:32:49.000Z,72.19
2022-09-13T03:33:42.000Z,72.09
2022-09-13T03:34:38.000Z,72.01
2022-09-13T03:35:39.000Z,72.14
2022-09-13T03:36:37.000Z,71.82
2022-09-13T03:37:43.000Z,71.80
2022-09-13T03:38:37.000Z,71.83
2022-09-13T03:39:39.000Z,71.78
2022-09-13T03:40:51.000Z,71.56
2022-09-13T03:41:35.000Z,72.51
2022-09-13T03:42:44.000Z,72.48
2022-09-13T03:43:44.000Z,72.13
2022-09-13T03:44:31.000Z,72.09
2022-09-13T03:45:34.000Z,72.20
2022-09-13T03:46:36.000Z,71.98
2022-09-13T03:47:32.000Z,72.21
2022-09-13T03:48:31.000Z,71.90
2022-09-13T03:49:30.000Z,71.94
2022-09-13T03:50:30.000Z,72.06
2022-09-13T03:51:29.000Z,72.15
2022-09-13T03:52:29.000Z,72.17
2022-09-13T03:53:32.000Z,72.59
2022-09-13T03:54:31.000Z,72.41
2022-09-13T03:55:31.000Z,72.35
2022-09-13T03:56:29.000Z,73.17
2022-09-13T03:57:28.000Z,72.79
2022-09-13T03:58:28.000Z,72.75
2022-09-13T03:59:29.000Z,72.74
2022-09-13T04:00:28.000Z,72.76
2022-09-13T04:01:29.000Z,72.70
2022-09-13T04:02:28.000Z,72.75
2022-09-13T04:03:28.000Z,72.95
2022-09-13T04:04:28.000Z,72.79
2022-09-13T04:05:28.000Z,73.01
2022-09-13T04:06:28.000Z,72.83
2022-09-13T04:07:29.000Z,72.91
2022-09-13T04:08:29.000Z,73.02
2022-09-13T04:09:29.000Z,73.13
2022-09-13T04:10:31.000Z,73.16
2022-09-13T04:11:28.000Z,73.44
2022-09-13T04:12:29.000Z,73.70
2022-09-13T04:13:28.000Z,73.40
2022-09-13T04:14:29.000Z,73.62
2022-09-13T04:15:30.000Z,73.51
2022-09-13T04:16:28.000Z,73.73
2022-09-13T04:17:28.000Z,73.63
2022-09-13T04:18:29.000Z,73.85
2022-09-13T04:19:30.000Z,73.52
2022-09-13T04:20:28.000Z,73.69
2022-09-13T04:21:30.000Z,73.45
2022-09-13T04:22:28.000Z,73.51
2022-09-13T04:23:29.000Z,74.37
2022-09-13T04:24:29.000Z,74.23
2022-09-13T04:25:29.000Z,74.07
2022-09-13T04:26:28.000Z,74.15
2022-09-13T04:27:28.000Z,74.06
2022-09-13T04:28:29.000Z,73.90
2022-09-13T04:29:30.000Z,74.24
2022-09-13T04:30:29.000Z,74.19
2022-09-13T04:31:28.000Z,74.50
2022-09-13T04:32:28.000Z,74.23
2022-09-13T04:33:30.000Z,74.26
2022-09-13T04:34:28.000Z,74.00
2022-09-13T04:35:28.000Z,74.00
2022-09-13T04:36:28.000Z,74.28
2022-09-13T04:37:28.000Z,73.90
2022-09-13T04:38:30.000Z,74.38
2022-09-13T04:39:28.000Z,74.59
2022-09-13T04:40:28.000Z,74.35
2022-09-13T04:41:29.000Z,74.54
2022-09-13T04:42:28.000Z,74.25
2022-09-13T04:43:28.000Z,74.15
2022-09-13T04:44:29.000Z,74.15
2022-09-13T04:45:28.000Z,74.67
2022-09-13T04:46:28.000Z,74.17
2022-09-13T04:47:29.000Z,74.29
2022-09-13T04:48:28.000Z,74.03
2022-09-13T04:49:28.000Z,74.16
2022-09-13T04:50:28.000Z,74.45
2022-09-13T04:51:28.000Z,74.19
2022-09-13T04:52:29.000Z,73.81
2022-09-13T04:53:31.000Z,73.66
2022-09-13T04:54:28.000Z,73.63
2022-09-13T04:55:29.000Z,73.76
2022-09-13T04:56:28.000Z,74.07
2022-09-13T04:57:29.000Z,73.88
2022-09-13T04:58:30.000Z,73.65
2022-09-13T04:59:28.000Z,73.80
2022-09-13T05:00:29.000Z,74.37
2022-09-13T05:01:28.000Z,74.12
2022-09-13T05:02:28.000Z,73.86
2022-09-13T05:03:30.000Z,73.86
2022-09-13T05:04:28.000Z,73.77
2022-09-13T05:05:30.000Z,73.92
2022-09-13T05:06:29.000Z,74.23
2022-09-13T05:07:28.000Z,73.75
2022-09-13T05:08:28.000Z,73.68
2022-09-13T05:09:28.000Z,73.49
2022-09-13T05:10:28.000Z,74.16
2022-09-13T05:11:28.000Z,73.98
2022-09-13T05:12:28.000Z,73.77
2022-09-13T05:13:29.000Z,73.64
2022-09-13T05:14:28.000Z,73.92
2022-09-13T05:15:28.000Z,73.58
2022-09-13T05:16:31.000Z,74.12
2022-09-13T05:17:28.000Z,73.80
2022-09-13T05:18:33.000Z,73.95
2022-09-13T05:19:28.000Z,73.84
2022-09-13T05:20:29.000Z,73.91
2022-09-13T05:21:29.000Z,73.82
2022-09-13T05:22:28.000Z,73.86
2022-09-13T05:23:30.000Z,74.01
2022-09-13T05:24:28.000Z,74.14
2022-09-13T05:25:28.000Z,73.97
2022-09-13T05:26:29.000Z,74.11
2022-09-13T05:27:28.000Z,73.93
2022-09-13T05:28:30.000Z,73.92
2022-09-13T05:29:28.000Z,74.58
2022-09-13T05:30:28.000Z,74.17
2022-09-13T05:31:31.000Z,74.40
2022-09-13T05:32:30.000Z,74.33
2022-09-13T05:33:32.000Z,74.33
2022-09-13T05:34:28.000Z,74.52
2022-09-13T05:35:28.000Z,74.52
2022-09-13T05:36:29.000Z,74.46
2022-09-13T05:37:28.000Z,74.70
2022-09-13T05:38:30.000Z,74.64
2022-09-13T05:39:28.000Z,74.81
2022-09-13T05:40:28.000Z,74.56
2022-09-13T05:41:28.000Z,74.61
2022-09-13T05:42:28.000Z,74.68
2022-09-13T05:43:31.000Z,74.92
2022-09-13T05:44:28.000Z,74.77
2022-09-13T05:45:28.000Z,75.14
2022-09-13T05:46:28.000Z,74.89
2022-09-13T05:47:28.000Z,74.64
2022-09-13T05:48:30.000Z,74.73
2022-09-13T05:49:28.000Z,74.69
2022-09-13T05:50:28.000Z,74.62
2022-09-13T05:51:28.000Z,74.59
2022-09-13T05:52:28.000Z,74.85
2022-09-13T05:53:29.000Z,75.00
2022-09-13T05:54:28.000Z,74.80
2022-09-13T05:55:29.000Z,75.33
2022-09-13T05:56:29.000Z,74.97
2022-09-13T05:57:35.000Z,74.88
2022-09-13T05:58:28.000Z,74.87
2022-09-13T05:59:28.000Z,74.75
2022-09-13T06:00:30.000Z,74.94
2022-09-13T06:01:28.000Z,74.87
2022-09-13T06:02:29.000Z,74.76
2022-09-13T06:03:29.000Z,74.93
2022-09-13T06:04:29.000Z,75.01
2022-09-13T06:05:29.000Z,74.88
2022-09-13T06:06:29.000Z,75.20
2022-09-13T06:07:29.000Z,75.08
2022-09-13T06:08:30.000Z,75.08
2022-09-13T06:09:29.000Z,74.91
2022-09-13T06:10:29.000Z,74.91
2022-09-13T06:11:29.000Z,75.04
2022-09-13T06:12:40.000Z,74.96
2022-09-13T06:14:03.000Z,75.31
2022-09-13T06:14:29.000Z,75.23
2022-09-13T06:15:29.000Z,75.17
2022-09-13T06:16:29.000Z,74.87
2022-09-13T06:17:29.000Z,74.87
2022-09-13T06:18:29.000Z,74.90
2022-09-13T06:19:29.000Z,74.87
2022-09-13T06:20:29.000Z,74.95
2022-09-13T06:21:29.000Z,74.65
2022-09-13T06:22:32.000Z,75.17
2022-09-13T06:23:30.000Z,74.86
2022-09-13T06:24:29.000Z,74.90
2022-09-13T06:25:29.000Z,74.89
2022-09-13T06:26:29.000Z,75.13
2022-09-13T06:27:29.000Z,74.98
2022-09-13T06:28:29.000Z,75.04
2022-09-13T06:29:29.000Z,75.33
2022-09-13T06:30:29.000Z,75.01
2022-09-13T06:31:29.000Z,74.89
2022-09-13T06:32:29.000Z,74.79
2022-09-13T06:33:29.000Z,75.00
2022-09-13T06:34:28.000Z,74.82
2022-09-13T06:35:28.000Z,75.12
2022-09-13T06:36:29.000Z,74.71
2022-09-13T06:37:28.000Z,74.77
2022-09-13T06:38:29.000Z,74.43
2022-09-13T06:39:30.000Z,74.68
2022-09-13T06:40:28.000Z,74.94
2022-09-13T06:41:28.000Z,74.93
2022-09-13T06:42:28.000Z,75.10
2022-09-13T06:43:29.000Z,75.08
2022-09-13T06:44:29.000Z,75.00
2022-09-13T06:45:28.000Z,74.59
2022-09-13T06:46:30.000Z,74.98
2022-09-13T06:47:29.000Z,74.66
2022-09-13T06:48:33.000Z,75.09
2022-09-13T06:49:30.000Z,74.86
2022-09-13T06:50:28.000Z,74.73
2022-09-13T06:51:29.000Z,74.97
2022-09-13T06:52:28.000Z,74.66
2022-09-13T06:53:30.000Z,74.86
2022-09-13T06:54:28.000Z,74.70
2022-09-13T06:55:29.000Z,74.94
2022-09-13T06:56:35.000Z,74.56
2022-09-13T06:57:29.000Z,74.66
2022-09-13T06:58:30.000Z,74.35
2022-09-13T06:59:28.000Z,74.80
2022-09-13T07:00:28.000Z,74.47
2022-09-13T07:01:42.000Z,75.02
2022-09-13T07:02:28.000Z,74.51
2022-09-13T07:03:28.000Z,74.71
2022-09-13T07:04:30.000Z,75.08
2022-09-13T07:05:28.000Z,74.73
2022-09-13T07:06:32.000Z,74.54
2022-09-13T07:07:29.000Z,74.84
2022-09-13T07:08:29.000Z,74.56
2022-09-13T07:09:28.000Z,74.63
2022-09-13T07:10:28.000Z,74.85
2022-09-13T07:11:34.000Z,74.68
2022-09-13T07:12:28.000Z,74.78
2022-09-13T07:13:28.000Z,74.50
2022-09-13T07:14:28.000Z,74.78
2022-09-13T07:15:28.000Z,74.52
2022-09-13T07:16:30.000Z,74.80
2022-09-13T07:17:28.000Z,75.13
2022-09-13T07:18:28.000Z,74.54
2022-09-13T07:19:29.000Z,74.56
2022-09-13T07:20:28.000Z,74.59
2022-09-13T07:21:28.000Z,74.85
2022-09-13T07:22:28.000Z,74.95
2022-09-13T07:23:30.000Z,74.91
2022-09-13T07:24:28.000Z,74.75
2022-09-13T07:25:28.000Z,74.62
2022-09-13T07:26:28.000Z,74.86
2022-09-13T07:27:28.000Z,74.66
2022-09-13T07:28:34.000Z,74.56
2022-09-13T07:29:28.000Z,74.64
2022-09-13T07:30:28.000Z,75.04
2022-09-13T07:31:31.000Z,75.09
2022-09-13T07:32:30.000Z,74.86
2022-09-13T07:33:28.000Z,74.79
2022-09-13T07:34:28.000Z,74.67
2022-09-13T07:35:28.000Z,74.80
2022-09-13T07:36:30.000Z,74.61
2022-09-13T07:37:29.000Z,74.45
2022-09-13T07:38:29.000Z,74.28
2022-09-13T07:39:29.000Z,74.76
2022-09-13T07:40:29.000Z,74.58
2022-09-13T07:41:30.000Z,74.50
2022-09-13T07:42:29.000Z,74.59
2022-09-13T07:43:29.000Z,74.57
2022-09-13T07:44:29.000Z,74.37
2022-09-13T07:45:29.000Z,74.30
2022-09-13T07:46:32.000Z,74.62
2022-09-13T07:47:31.000Z,74.38
2022-09-13T07:48:32.000Z,74.22
2022-09-13T07:49:29.000Z,74.23
2022-09-13T07:50:29.000Z,74.03
2022-09-13T07:51:31.000Z,74.22
2022-09-13T07:52:29.000Z,74.05
2022-09-13T07:53:29.000Z,74.20
2022-09-13T07:54:29.000Z,73.97
2022-09-13T07:55:30.000Z,73.95
2022-09-13T07:56:33.000Z,73.95
2022-09-13T07:57:29.000Z,73.87
2022-09-13T07:58:29.000Z,73.64
2022-09-13T07:59:29.000Z,73.55
2022-09-13T08:00:29.000Z,73.22
2022-09-13T08:01:34.000Z,73.19
2022-09-13T08:02:29.000Z,73.05
2022-09-13T08:03:29.000Z,73.19
2022-09-13T08:04:29.000Z,72.87
2022-09-13T08:05:29.000Z,72.87
2022-09-13T08:06:30.000Z,72.90
2022-09-13T08:07:29.000Z,72.72
2022-09-13T08:08:30.000Z,72.85
2022-09-13T08:09:28.000Z,72.87
2022-09-13T08:10:28.000Z,72.73
2022-09-13T08:11:36.000Z,73.00
2022-09-13T08:12:28.000Z,72.74
2022-09-13T08:13:29.000Z,72.59
2022-09-13T08:14:28.000Z,72.78
2022-09-13T08:15:28.000Z,72.67
2022-09-13T08:16:29.000Z,72.84
2022-09-13T08:17:28.000Z,72.75
2022-09-13T08:18:29.000Z,72.79
2022-09-13T08:19:28.000Z,72.69
2022-09-13T08:20:28.000Z,72.66
2022-09-13T08:21:37.000Z,72.88
2022-09-13T08:22:28.000Z,72.92
2022-09-13T08:23:29.000Z,72.73
2022-09-13T08:24:28.000Z,72.74
2022-09-13T08:25:32.000Z,72.49
2022-09-13T08:26:31.000Z,72.60
2022-09-13T08:27:28.000Z,72.40
2022-09-13T08:28:30.000Z,72.40
2022-09-13T08:29:28.000Z,72.55
2022-09-13T08:30:33.000Z,72.26
2022-09-13T08:31:29.000Z,72.31
2022-09-13T08:32:29.000Z,72.37
2022-09-13T08:33:29.000Z,72.18
2022-09-13T08:34:28.000Z,72.22
2022-09-13T08:35:29.000Z,72.38
2022-09-13T08:36:28.000Z,72.10
2022-09-13T08:37:29.000Z,72.11
2022-09-13T08:38:28.000Z,72.13
2022-09-13T08:39:28.000Z,72.03
2022-09-13T08:40:38.000Z,72.28
2022-09-13T08:41:38.000Z,72.32
2022-09-13T08:42:43.000Z,71.80
2022-09-13T08:43:38.000Z,71.97
2022-09-13T08:44:33.000Z,72.00
2022-09-13T08:45:28.000Z,71.97
2022-09-13T08:46:39.000Z,71.58
2022-09-13T08:47:38.000Z,71.54
2022-09-13T08:48:34.000Z,71.80
2022-09-13T08:49:33.000Z,71.74
2022-09-13T08:50:32.000Z,71.95
2022-09-13T08:51:41.000Z,72.07
2022-09-13T08:52:33.000Z,71.78
2022-09-13T08:53:29.000Z,72.13
2022-09-13T08:54:28.000Z,71.76
2022-09-13T08:55:49.000Z,71.75
2022-09-13T08:56:42.000Z,71.98
2022-09-13T08:57:43.000Z,71.54
2022-09-13T08:59:01.000Z,70.85
2022-09-13T08:59:38.000Z,69.99
2022-09-13T09:00:37.000Z,69.80
2022-09-13T09:01:51.000Z,69.85
2022-09-13T09:02:38.000Z,69.33
2022-09-13T09:03:48.000Z,69.46
2022-09-13T09:04:35.000Z,69.56
2022-09-13T09:05:30.000Z,69.46
2022-09-13T09:06:28.000Z,70.01
2022-09-13T09:07:32.000Z,69.72
2022-09-13T09:08:40.000Z,69.66
2022-09-13T09:09:32.000Z,69.07
2022-09-13T09:10:38.000Z,69.17
2022-09-13T09:11:40.000Z,69.39
2022-09-13T09:12:38.000Z,69.12
2022-09-13T09:13:46.000Z,69.14
2022-09-13T09:14:39.000Z,69.10
2022-09-13T09:15:46.000Z,68.92
2022-09-13T09:16:37.000Z,68.65
2022-09-13T09:17:41.000Z,68.59
2022-09-13T09:18:35.000Z,67.99
2022-09-13T09:19:40.000Z,68.36
2022-09-13T09:20:41.000Z,67.90
2022-09-13T09:21:31.000Z,68.10
2022-09-13T09:22:32.000Z,67.99
2022-09-13T09:23:38.000Z,67.79
2022-09-13T09:24:35.000Z,68.40
2022-09-13T09:25:30.000Z,68.20
2022-09-13T09:26:29.000Z,68.38
2022-09-13T09:27:29.000Z,68.21
2022-09-13T09:28:30.000Z,68.01
2022-09-13T09:29:31.000Z,67.85
2022-09-13T09:30:39.000Z,67.24
2022-09-13T09:31:38.000Z,67.06
2022-09-13T09:32:39.000Z,67.77
2022-09-13T09:33:38.000Z,67.84
2022-09-13T09:34:39.000Z,66.93
2022-09-13T09:35:38.000Z,67.20
2022-09-13T09:36:38.000Z,67.53
2022-09-13T09:37:29.000Z,67.16
2022-09-13T09:38:39.000Z,67.29
2022-09-13T09:39:31.000Z,67.07
2022-09-13T09:40:31.000Z,66.03
2022-09-13T09:41:31.000Z,66.11
2022-09-13T09:42:33.000Z,66.24
2022-09-13T09:43:34.000Z,66.27
2022-09-13T09:44:30.000Z,66.93
2022-09-13T09:45:36.000Z,66.67
2022-09-13T09:46:32.000Z,66.71
2022-09-13T09:47:40.000Z,66.85
2022-09-13T09:48:37.000Z,66.82
2022-09-13T09:49:44.000Z,66.36
2022-09-13T09:50:33.000Z,66.59
2022-09-13T09:51:30.000Z,65.97
2022-09-13T09:52:35.000Z,66.44
2022-09-13T09:53:36.000Z,66.01
2022-09-13T09:54:29.000Z,66.47
2022-09-13T09:55:35.000Z,66.93
2022-09-13T09:56:32.000Z,66.74
2022-09-13T09:57:38.000Z,66.47
2022-09-13T09:58:38.000Z,66.59
2022-09-13T09:59:31.000Z,66.20
2022-09-13T10:00:48.000Z,66.67
2022-09-13T10:01:36.000Z,66.90
2022-09-13T10:02:28.000Z,66.85
2022-09-13T10:03:31.000Z,66.05
2022-09-13T10:04:29.000Z,65.81
2022-09-13T10:05:33.000Z,65.85
2022-09-13T10:06:30.000Z,65.65
2022-09-13T10:07:32.000Z,65.65
2022-09-13T10:08:31.000Z,65.55
2022-09-13T10:09:29.000Z,66.01
2022-09-13T10:10:40.000Z,66.03
2022-09-13T10:11:51.000Z,66.34
2022-09-13T10:12:32.000Z,66.09
2022-09-13T10:13:30.000Z,66.33
2022-09-13T10:14:39.000Z,66.50
2022-09-13T10:15:33.000Z,65.88
2022-09-13T10:16:30.000Z,65.69
2022-09-13T10:17:29.000Z,65.78
2022-09-13T10:18:31.000Z,64.36
2022-09-13T10:19:28.000Z,64.00
2022-09-13T10:20:29.000Z,64.59
2022-09-13T10:21:29.000Z,65.19
2022-09-13T10:22:31.000Z,65.80
2022-09-13T10:23:30.000Z,65.57
2022-09-13T10:24:29.000Z,65.38
2022-09-13T10:25:30.000Z,64.74
2022-09-13T10:26:32.000Z,65.29
2022-09-13T10:27:34.000Z,65.78
2022-09-13T10:28:32.000Z,65.78
2022-09-13T10:29:30.000Z,65.95
2022-09-13T10:30:39.000Z,66.50
2022-09-13T10:31:33.000Z,65.44
2022-09-13T10:32:29.000Z,65.73
2022-09-13T10:33:32.000Z,65.51
2022-09-13T10:34:34.000Z,65.69
2022-09-13T10:35:29.000Z,65.62
2022-09-13T10:36:32.000Z,65.81
2022-09-13T10:37:30.000Z,65.36
2022-09-13T10:38:32.000Z,65.58
2022-09-13T10:39:34.000Z,65.55
2022-09-13T10:40:30.000Z,64.71
2022-09-13T10:41:34.000Z,65.03
2022-09-13T10:42:29.000Z,64.89
2022-09-13T10:43:30.000Z,65.03
2022-09-13T10:44:34.000Z,63.43
2022-09-13T10:45:29.000Z,63.78
2022-09-13T10:46:30.000Z,63.54
2022-09-13T10:47:37.000Z,63.96
2022-09-13T10:48:29.000Z,63.93
2022-09-13T10:49:43.000Z,64.87
2022-09-13T10:50:29.000Z,64.76
2022-09-13T10:51:34.000Z,65.00
2022-09-13T10:52:39.000Z,65.22
2022-09-13T10:53:34.000Z,65.32
2022-09-13T10:54:28.000Z,64.76
2022-09-13T10:55:34.000Z,64.63
2022-09-13T10:56:28.000Z,64.65
2022-09-13T10:57:34.000Z,64.22
2022-09-13T10:58:28.000Z,63.70
2022-09-13T10:59:28.000Z,63.15
2022-09-13T11:00:40.000Z,63.85
2022-09-13T11:01:38.000Z,63.61
2022-09-13T11:02:48.000Z,63.18
2022-09-13T11:03:38.000Z,64.30
2022-09-13T11:04:38.000Z,63.95
2022-09-13T11:05:34.000Z,64.04
2022-09-13T11:06:46.000Z,62.63
2022-09-13T11:07:45.000Z,62.67
2022-09-13T11:08:43.000Z,62.85
2022-09-13T11:09:38.000Z,62.55
2022-09-13T11:10:49.000Z,62.76
2022-09-13T11:11:40.000Z,63.40
2022-09-13T11:12:51.000Z,62.98
2022-09-13T11:13:50.000Z,63.56
2022-09-13T11:14:47.000Z,63.58
2022-09-13T11:15:38.000Z,64.06
2022-09-13T11:16:50.000Z,64.23
2022-09-13T11:17:51.000Z,63.83
2022-09-13T11:18:53.000Z,63.75
2022-09-13T11:19:51.000Z,62.36
2022-09-13T11:20:38.000Z,62.64
2022-09-13T11:21:44.000Z,62.65
2022-09-13T11:22:39.000Z,63.00
2022-09-13T11:23:44.000Z,63.33
2022-09-13T11:25:02.000Z,63.18
2022-09-13T11:25:45.000Z,63.48
2022-09-13T11:26:52.000Z,62.94
2022-09-13T11:27:49.000Z,62.81
2022-09-13T11:28:49.000Z,62.84
2022-09-13T11:29:40.000Z,63.04
2022-09-13T11:30:40.000Z,62.99
2022-09-13T11:31:40.000Z,62.90
2022-09-13T11:32:42.000Z,62.64
2022-09-13T11:33:40.000Z,63.03
2022-09-13T11:34:54.000Z,63.96
2022-09-13T11:35:38.000Z,62.85
2022-09-13T11:36:43.000Z,62.59
2022-09-13T11:37:42.000Z,62.97
2022-09-13T11:38:36.000Z,62.42
2022-09-13T11:39:36.000Z,62.31
2022-09-13T11:40:38.000Z,62.46
2022-09-13T11:41:42.000Z,62.39
2022-09-13T11:42:43.000Z,62.40
2022-09-13T11:43:39.000Z,61.93
2022-09-13T11:44:46.000Z,62.66
2022-09-13T11:45:48.000Z,61.62
2022-09-13T11:46:42.000Z,61.44
2022-09-13T11:47:59.000Z,61.68
2022-09-13T11:48:38.000Z,61.94
2022-09-13T11:49:48.000Z,62.44
2022-09-13T11:50:49.000Z,62.76
2022-09-13T11:51:38.000Z,62.37
2022-09-13T11:52:48.000Z,62.09
2022-09-13T11:53:38.000Z,61.19
2022-09-13T11:54:48.000Z,61.24
2022-09-13T11:55:36.000Z,61.72
2022-09-13T11:56:35.000Z,61.81
2022-09-13T11:57:34.000Z,62.17
2022-09-13T11:58:36.000Z,62.27
2022-09-13T11:59:40.000Z,63.45
2022-09-13T12:00:36.000Z,62.42
2022-09-13T12:01:39.000Z,61.95
2022-09-13T12:02:40.000Z,62.11
2022-09-13T12:03:38.000Z,60.63
2022-09-13T12:04:48.000Z,59.55
2022-09-13T12:05:37.000Z,59.96
2022-09-13T12:06:38.000Z,59.17
2022-09-13T12:07:43.000Z,60.31
2022-09-13T12:08:36.000Z,59.95
2022-09-13T12:09:35.000Z,59.07
2022-09-13T12:10:35.000Z,59.18
2022-09-13T12:11:35.000Z,59.97
2022-09-13T12:12:32.000Z,60.26
2022-09-13T12:13:40.000Z,60.24
2022-09-13T12:14:40.000Z,60.49
2022-09-13T12:15:35.000Z,61.11
2022-09-13T12:16:36.000Z,60.18
2022-09-13T12:17:35.000Z,60.88
2022-09-13T12:18:34.000Z,60.69
2022-09-13T12:19:51.000Z,61.19
2022-09-13T12:20:36.000Z,61.12
2022-09-13T12:21:34.000Z,60.82
2022-09-13T12:22:32.000Z,59.32
2022-09-13T12:23:33.000Z,59.33
2022-09-13T12:24:46.000Z,59.87
2022-09-13T12:26:05.000Z,60.47
2022-09-13T12:26:38.000Z,60.59
2022-09-13T12:27:37.000Z,60.40
2022-09-13T12:28:38.000Z,60.84
2022-09-13T12:29:38.000Z,60.33
2022-09-13T12:30:39.000Z,60.56
2022-09-13T12:31:30.000Z,60.53
2022-09-13T12:32:29.000Z,60.54
2022-09-13T12:33:28.000Z,60.32
2022-09-13T12:34:39.000Z,60.20
2022-09-13T12:35:34.000Z,60.58
2022-09-13T12:36:38.000Z,60.31
2022-09-13T12:37:54.000Z,60.18
2022-09-13T12:38:48.000Z,59.34
2022-09-13T12:39:42.000Z,60.16
2022-09-13T12:40:38.000Z,60.74
2022-09-13T12:41:44.000Z,60.74
2022-09-13T12:42:44.000Z,60.30
2022-09-13T12:43:45.000Z,60.06
2022-09-13T12:44:44.000Z,60.53
2022-09-13T12:45:38.000Z,60.54
2022-09-13T12:47:04.000Z,60.87
2022-09-13T12:47:54.000Z,59.43
2022-09-13T12:48:55.000Z,58.76
2022-09-13T12:49:51.000Z,57.99
2022-09-13T12:50:57.000Z,58.43
2022-09-13T12:51:51.000Z,58.37
2022-09-13T12:52:42.000Z,57.70